Decoded Metar for LFRL (LANVEDOC in FRANCE) (IATA:N/A) | Meteo·Mobile Aviation Weather
aviador You're here:

LFRL Decoded Metar

LANVEDOC in FRANCE
Report Time2018-11-12 21:30:00
UTC Time2018-11-12 22:03:01
Flight Rules vfr VFR
Wind210° at 10 kt
W.Decomp.*RWY 23: 9.6 kt HW 2.9 kt LCW
W.Rank210° ranks 2
Current wind is below 210° avg. (10.8)
Visibility9999 m
Phenomena:N/A
Clouds:N/A
Expected CloudBase > 800 ft AGL from Temp-Dew spread
CeilingNone
Temp11°C (ISA -3)
Dew Point09°C (88% RH)
AAT7.2°C
QNH1016 hPa
Density Alt-92 ft
Elevation269 ft
Report Wrong Elevation
Raw Report
METAR LFRL 122130Z AUTO 21010KT CAVOK 11/09 Q1016=

Extra information for LFRL:More info

Metar Taf Metar & Taf Last 4 Metars F.Rules Stats Wind Profile Meteogram Temp Stats Airport Information Weather charts Add Link Nearby VenuesMetar ALERT Operation Metar Decoded Social comments